X  Tanca Dades meteorològiques de l'aviació METAR     PANC Ted Stevens Anchorage International Airport
Temperatura
54°F Temperatura
45°F Rosada
72% Humitat



Vent
12 MPH
19 KM/H
5 M/S
10 NUS



150°
SSE
Condicions actuals

Parcialment ennuvolat Parcialment ennuvolat
Pressió 1013.21 (hPa) - 29.92 (inHg)
Visibilitat 10 (milla) - 16.1 (km)
Aeroport
Codi aeroport PANC

Ubicació: Ted Stevens Anchorage International Airport
Distància: 8 (mi)

Metar:
PANC 170853Z 15010G19KT 10SM FEW010 BKN060 BKN080 12/07 A2992 RMK AO2 SLP134 T01170072 401280106 50001

Temps: 17-07-2024 00:53 AKDT